createdAt,value
2018-07-23T00:00:23.368Z,87.94
2018-07-23T00:02:52.351Z,87.90
2018-07-23T00:05:21.579Z,87.04
2018-07-23T00:07:50.522Z,87.54
2018-07-23T00:10:19.943Z,86.91
2018-07-23T00:12:50.019Z,87.38
2018-07-23T00:15:19.086Z,87.63
2018-07-23T00:17:48.401Z,88.15
2018-07-23T00:20:17.584Z,87.62
2018-07-23T00:22:46.824Z,87.41
2018-07-23T00:25:16.595Z,87.44
2018-07-23T00:27:45.815Z,87.09
2018-07-23T00:30:14.793Z,88.04
2018-07-23T00:32:43.889Z,88.36
2018-07-23T00:35:13.004Z,88.62
2018-07-23T00:37:42.328Z,89.13
2018-07-23T00:40:12.400Z,88.11
2018-07-23T00:42:41.355Z,87.46
2018-07-23T00:45:10.807Z,87.49
2018-07-23T00:47:40.198Z,87.78
2018-07-23T00:50:09.703Z,87.98
2018-07-23T00:52:39.229Z,87.68
2018-07-23T00:55:08.485Z,87.75
2018-07-23T00:57:38.008Z,88.02
2018-07-23T01:00:08.222Z,88.31
2018-07-23T01:02:37.324Z,87.97
2018-07-23T01:05:10.006Z,87.76
2018-07-23T01:07:39.102Z,88.63
2018-07-23T01:10:08.100Z,88.34
2018-07-23T01:12:37.112Z,88.09
2018-07-23T01:15:09.443Z,88.53
2018-07-23T01:17:38.436Z,87.93
2018-07-23T01:20:07.634Z,88.49
2018-07-23T01:22:37.529Z,89.04
2018-07-23T01:25:08.306Z,89.55
2018-07-23T01:27:37.857Z,89.12
2018-07-23T01:30:08.133Z,89.38
2018-07-23T01:32:37.121Z,89.23
2018-07-23T01:35:07.798Z,89.03
2018-07-23T01:37:36.947Z,90.09
2018-07-23T01:40:09.526Z,90.71
2018-07-23T01:42:38.616Z,90.64
2018-07-23T01:45:07.896Z,90.81
2018-07-23T01:47:37.699Z,90.51
2018-07-23T01:50:08.278Z,89.76
2018-07-23T01:52:37.718Z,90.57
2018-07-23T01:55:08.209Z,90.80
2018-07-23T01:57:37.503Z,90.91
2018-07-23T02:00:08.312Z,90.66
2018-07-23T02:02:37.430Z,91.26
2018-07-23T02:05:07.745Z,90.56
2018-07-23T02:07:36.722Z,92.12
2018-07-23T02:10:07.377Z,92.00
2018-07-23T02:12:36.417Z,91.86
2018-07-23T02:15:09.553Z,91.65
2018-07-23T02:17:39.221Z,91.38
2018-07-23T02:20:08.769Z,91.48
2018-07-23T02:22:37.856Z,92.49
2018-07-23T02:25:08.998Z,92.44
2018-07-23T02:27:37.954Z,93.12
2018-07-23T02:30:08.134Z,92.47
2018-07-23T02:32:37.119Z,92.80
2018-07-23T02:35:07.673Z,92.46
2018-07-23T02:37:36.892Z,92.86
2018-07-23T02:40:07.790Z,92.63
2018-07-23T02:42:36.875Z,92.80
2018-07-23T02:45:07.433Z,93.29
2018-07-23T02:47:36.633Z,94.12
2018-07-23T02:50:07.962Z,93.57
2018-07-23T02:52:38.246Z,93.95
2018-07-23T02:55:08.185Z,94.12
2018-07-23T02:57:37.891Z,93.97
2018-07-23T03:00:08.035Z,93.20
2018-07-23T03:02:37.301Z,93.26
2018-07-23T03:05:07.766Z,93.19
2018-07-23T03:07:37.050Z,92.89
2018-07-23T03:10:09.051Z,93.25
2018-07-23T03:12:38.288Z,93.65
2018-07-23T03:15:09.329Z,93.99
2018-07-23T03:17:39.138Z,94.29
2018-07-23T03:20:08.674Z,94.21
2018-07-23T03:22:37.749Z,94.03
2018-07-23T03:25:08.018Z,93.60
2018-07-23T03:27:37.081Z,93.72
2018-07-23T03:30:07.850Z,93.39
2018-07-23T03:32:36.844Z,93.54
2018-07-23T03:35:09.178Z,93.82
2018-07-23T03:37:38.133Z,93.09
2018-07-23T03:40:08.124Z,93.52
2018-07-23T03:42:37.843Z,93.47
2018-07-23T03:45:08.227Z,93.38
2018-07-23T03:47:37.173Z,93.22
2018-07-23T03:50:09.698Z,93.57
2018-07-23T03:52:38.777Z,93.19
2018-07-23T03:55:08.029Z,93.05
2018-07-23T03:57:37.262Z,93.24
2018-07-23T04:00:09.679Z,92.79
2018-07-23T04:02:38.677Z,93.97
2018-07-23T04:05:07.953Z,93.19
2018-07-23T04:07:37.033Z,93.41
2018-07-23T04:10:07.824Z,93.69
2018-07-23T04:12:36.838Z,93.27
2018-07-23T04:15:10.313Z,93.84
2018-07-23T04:17:39.273Z,93.75
2018-07-23T04:20:09.224Z,93.90
2018-07-23T04:22:38.162Z,94.64
2018-07-23T04:25:08.811Z,94.61
2018-07-23T04:27:37.887Z,94.01
2018-07-23T04:30:08.187Z,93.74
2018-07-23T04:32:37.207Z,92.91
2018-07-23T04:35:08.258Z,93.09
2018-07-23T04:37:37.346Z,93.01
2018-07-23T04:40:07.775Z,93.58
2018-07-23T04:42:36.841Z,93.33
2018-07-23T04:45:07.224Z,92.56
2018-07-23T04:47:36.372Z,93.25
2018-07-23T04:50:07.274Z,92.58
2018-07-23T04:52:36.769Z,91.97
2018-07-23T04:55:06.770Z,90.53
2018-07-23T04:57:35.938Z,90.21
2018-07-23T05:00:08.750Z,89.72
2018-07-23T05:02:37.800Z,89.29
2018-07-23T05:05:06.931Z,90.68
2018-07-23T05:07:35.993Z,88.91
2018-07-23T05:10:08.261Z,87.62
2018-07-23T05:12:37.974Z,87.70
2018-07-23T05:15:07.532Z,87.59
2018-07-23T05:17:37.030Z,87.62
2018-07-23T05:20:07.904Z,88.04
2018-07-23T05:22:37.008Z,87.81
2018-07-23T05:25:06.886Z,88.41
2018-07-23T05:27:36.145Z,87.99
2018-07-23T05:30:08.639Z,88.81
2018-07-23T05:32:37.578Z,88.41
2018-07-23T05:35:06.858Z,88.62
2018-07-23T05:37:36.091Z,88.87
2018-07-23T05:40:08.185Z,88.35
2018-07-23T05:42:37.257Z,88.36
2018-07-23T05:45:07.095Z,88.18
2018-07-23T05:47:36.182Z,88.58
2018-07-23T05:50:09.311Z,87.46
2018-07-23T05:52:38.284Z,88.19
2018-07-23T05:55:07.307Z,87.41
2018-07-23T05:57:36.355Z,86.95
2018-07-23T06:00:07.323Z,86.51
2018-07-23T06:02:36.291Z,85.16
2018-07-23T06:05:09.165Z,85.16
2018-07-23T06:07:38.453Z,85.23
2018-07-23T06:10:07.595Z,85.55
2018-07-23T06:12:37.597Z,86.05
2018-07-23T06:15:09.042Z,85.76
2018-07-23T06:17:38.204Z,85.82
2018-07-23T06:20:08.595Z,84.72
2018-07-23T06:22:38.827Z,84.51
2018-07-23T06:25:09.189Z,82.59
2018-07-23T06:27:38.303Z,82.10
2018-07-23T06:30:10.036Z,83.34
2018-07-23T06:32:39.680Z,83.90
2018-07-23T06:35:09.082Z,84.18
2018-07-23T06:37:38.206Z,83.06
2018-07-23T06:40:08.305Z,83.49
2018-07-23T06:42:37.298Z,83.33
2018-07-23T06:45:08.472Z,82.56
2018-07-23T06:47:37.719Z,81.98
2018-07-23T06:50:08.175Z,81.11
2018-07-23T06:52:37.654Z,80.51
2018-07-23T06:55:07.773Z,80.04
2018-07-23T06:57:36.835Z,80.07
2018-07-23T07:00:08.226Z,78.44
2018-07-23T07:02:37.301Z,78.40
2018-07-23T07:05:08.367Z,78.35
2018-07-23T07:07:37.631Z,75.95
2018-07-23T07:10:08.182Z,75.27
2018-07-23T07:12:37.124Z,72.85
2018-07-23T07:15:08.743Z,70.83
2018-07-23T07:17:37.909Z,63.50
2018-07-23T07:20:08.163Z,60.89
2018-07-23T07:22:37.507Z,66.19
2018-07-23T07:25:08.167Z,58.52
2018-07-23T07:27:37.266Z,58.43
2018-07-23T07:30:08.450Z,51.76
2018-07-23T07:32:37.714Z,56.09
2018-07-23T07:35:07.750Z,53.20
2018-07-23T07:37:37.037Z,50.35
2018-07-23T07:40:08.844Z,56.61
2018-07-23T07:42:38.108Z,55.81
2018-07-23T07:45:08.534Z,60.10
2018-07-23T07:47:37.497Z,55.95
2018-07-23T07:50:07.962Z,56.47
2018-07-23T07:52:37.543Z,61.19
2018-07-23T07:55:07.861Z,65.57
2018-07-23T07:57:36.825Z,66.64
2018-07-23T08:00:09.766Z,67.34
2018-07-23T08:02:39.075Z,67.32
2018-07-23T08:05:08.529Z,67.68
2018-07-23T08:07:37.724Z,66.75
2018-07-23T08:10:07.991Z,67.31
2018-07-23T08:12:37.464Z,67.03
2018-07-23T08:15:07.593Z,67.12
2018-07-23T08:17:36.666Z,66.53
2018-07-23T08:20:07.884Z,65.61
2018-07-23T08:22:37.150Z,64.83
2018-07-23T08:25:10.694Z,63.42
2018-07-23T08:27:39.827Z,63.54
2018-07-23T08:30:08.932Z,62.12
2018-07-23T08:32:38.199Z,57.06
2018-07-23T08:35:07.625Z,55.96
2018-07-23T08:37:37.034Z,57.49
2018-07-23T08:40:08.375Z,55.91
2018-07-23T08:42:38.261Z,53.63
2018-07-23T08:45:07.638Z,54.17
2018-07-23T08:47:36.869Z,54.64
2018-07-23T08:50:08.301Z,49.54
2018-07-23T08:52:37.517Z,51.01
2018-07-23T08:55:07.666Z,50.60
2018-07-23T08:57:36.961Z,52.25
2018-07-23T09:00:09.238Z,53.12
2018-07-23T09:02:38.317Z,53.36
2018-07-23T09:05:07.583Z,51.12
2018-07-23T09:07:37.415Z,51.69
2018-07-23T09:10:08.312Z,49.14
2018-07-23T09:12:37.554Z,46.40
2018-07-23T09:15:07.698Z,44.23
2018-07-23T09:17:36.994Z,41.84
2018-07-23T09:20:09.751Z,38.31
2018-07-23T09:22:38.856Z,37.20
2018-07-23T09:25:07.869Z,37.77
2018-07-23T09:27:37.535Z,36.84
2018-07-23T09:30:12.232Z,40.33
2018-07-23T09:32:42.739Z,38.74
2018-07-23T09:35:11.679Z,36.44
2018-07-23T09:37:41.626Z,39.20
2018-07-23T09:40:10.865Z,39.67
2018-07-23T09:42:39.839Z,40.33
2018-07-23T09:45:09.323Z,38.41
2018-07-23T09:47:38.451Z,37.60
2018-07-23T09:50:07.548Z,37.79
2018-07-23T09:52:36.847Z,41.83
2018-07-23T09:55:07.637Z,46.21
2018-07-23T09:57:36.777Z,42.74
2018-07-23T10:00:07.706Z,42.32
2018-07-23T10:02:37.000Z,38.46
2018-07-23T10:05:07.723Z,42.23
2018-07-23T10:07:36.807Z,44.26
2018-07-23T10:10:07.731Z,46.21
2018-07-23T10:12:36.838Z,45.99
2018-07-23T10:15:09.402Z,45.42
2018-07-23T10:17:38.537Z,46.77
2018-07-23T10:20:08.044Z,43.46
2018-07-23T10:22:37.342Z,45.19
2018-07-23T10:25:07.781Z,44.68
2018-07-23T10:27:37.056Z,43.64
2018-07-23T10:30:09.374Z,41.70
2018-07-23T10:32:39.060Z,40.04
2018-07-23T10:35:08.547Z,40.36
2018-07-23T10:37:38.240Z,36.07
2018-07-23T10:40:07.794Z,37.04
2018-07-23T10:42:37.098Z,39.20
2018-07-23T10:45:09.348Z,39.32
2018-07-23T10:47:38.521Z,40.20
2018-07-23T10:50:07.495Z,36.96
2018-07-23T10:52:37.849Z,35.36
2018-07-23T10:55:07.742Z,38.58
2018-07-23T10:57:36.866Z,39.44
2018-07-23T11:00:09.947Z,39.20
2018-07-23T11:02:39.895Z,39.55
2018-07-23T11:05:09.782Z,41.39
2018-07-23T11:07:38.758Z,45.35
2018-07-23T11:10:08.786Z,44.68
2018-07-23T11:12:38.333Z,45.85
2018-07-23T11:15:09.211Z,44.29
2018-07-23T11:17:38.544Z,43.79
2018-07-23T11:20:10.252Z,46.15
2018-07-23T11:22:39.801Z,45.73
2018-07-23T11:25:38.596Z,46.25
2018-07-23T11:27:38.286Z,46.97
2018-07-23T11:30:07.763Z,46.37
2018-07-23T11:32:37.286Z,45.33
2018-07-23T11:35:08.187Z,44.81
2018-07-23T11:37:37.323Z,44.29
2018-07-23T11:40:07.576Z,44.25
2018-07-23T11:42:36.997Z,44.40
2018-07-23T11:45:10.009Z,45.26
2018-07-23T11:47:39.336Z,47.04
2018-07-23T11:50:08.847Z,46.79
2018-07-23T11:52:38.238Z,48.32
2018-07-23T11:55:08.030Z,48.54
2018-07-23T11:57:37.190Z,47.99
2018-07-23T12:00:09.550Z,46.74
2018-07-23T12:02:38.867Z,47.17
2018-07-23T12:05:08.018Z,45.95
2018-07-23T12:07:37.523Z,44.32
2018-07-23T12:10:07.674Z,44.27
2018-07-23T12:12:37.390Z,44.40
2018-07-23T12:15:10.374Z,42.96
2018-07-23T12:17:39.393Z,43.43
2018-07-23T12:20:09.463Z,45.54
2018-07-23T12:22:38.831Z,44.05
2018-07-23T12:25:07.784Z,44.91
2018-07-23T12:27:36.896Z,43.50
2018-07-23T12:30:06.997Z,45.24
2018-07-23T12:32:36.001Z,44.87
2018-07-23T12:35:07.007Z,45.21
2018-07-23T12:37:36.273Z,44.46
2018-07-23T12:40:08.286Z,43.60
2018-07-23T12:42:37.306Z,44.62
2018-07-23T12:45:07.567Z,43.26
2018-07-23T12:47:36.702Z,44.59
2018-07-23T12:50:07.982Z,41.63
2018-07-23T12:52:37.419Z,41.96
2018-07-23T12:55:08.380Z,44.13
2018-07-23T12:57:37.668Z,43.28
2018-07-23T13:00:07.098Z,45.21
2018-07-23T13:02:36.583Z,45.93
2018-07-23T13:05:07.741Z,43.74
2018-07-23T13:07:37.043Z,43.51
2018-07-23T13:10:07.575Z,44.56
2018-07-23T13:12:36.657Z,43.26
2018-07-23T13:15:07.296Z,44.02
2018-07-23T13:17:36.353Z,44.78
2018-07-23T13:20:07.528Z,44.47
2018-07-23T13:22:37.003Z,44.75
2018-07-23T13:25:07.338Z,45.05
2018-07-23T13:27:36.639Z,44.67
2018-07-23T13:30:07.696Z,43.98
2018-07-23T13:32:36.849Z,43.41
2018-07-23T13:35:07.300Z,44.19
2018-07-23T13:37:36.381Z,44.62
2018-07-23T13:40:07.135Z,44.54
2018-07-23T13:42:36.834Z,44.52
2018-07-23T13:45:07.294Z,43.40
2018-07-23T13:47:36.443Z,42.84
2018-07-23T13:50:07.000Z,44.40
2018-07-23T13:52:36.091Z,43.88
2018-07-23T13:55:07.345Z,42.99
2018-07-23T13:57:37.532Z,43.56
2018-07-23T14:00:08.225Z,43.57
2018-07-23T14:02:37.471Z,42.94
2018-07-23T14:05:07.738Z,43.86
2018-07-23T14:07:36.954Z,43.34
2018-07-23T14:10:07.173Z,43.50
2018-07-23T14:12:36.471Z,44.45
2018-07-23T14:15:07.038Z,43.29
2018-07-23T14:17:36.824Z,44.54
2018-07-23T14:20:07.500Z,44.62
2018-07-23T14:22:36.689Z,45.18
2018-07-23T14:25:07.339Z,46.07
2018-07-23T14:27:36.422Z,44.11
2018-07-23T14:30:07.085Z,44.23
2018-07-23T14:32:36.286Z,44.70
2018-07-23T14:35:09.091Z,43.55
2018-07-23T14:37:39.830Z,43.51
2018-07-23T14:40:08.807Z,44.07
2018-07-23T14:42:37.784Z,43.10
2018-07-23T14:45:07.781Z,43.52
2018-07-23T14:47:37.430Z,44.09
2018-07-23T14:50:08.223Z,44.88
2018-07-23T14:52:38.492Z,43.35
2018-07-23T14:55:07.678Z,43.66
2018-07-23T14:57:37.103Z,43.60
2018-07-23T15:00:07.267Z,43.19
2018-07-23T15:02:36.327Z,44.04
2018-07-23T15:05:08.531Z,42.90
2018-07-23T15:07:37.583Z,43.48
2018-07-23T15:10:07.232Z,43.57
2018-07-23T15:12:36.954Z,42.99
2018-07-23T15:15:07.073Z,42.42
2018-07-23T15:17:36.339Z,41.88
2018-07-23T15:20:08.732Z,42.65
2018-07-23T15:22:37.791Z,40.49
2018-07-23T15:25:07.039Z,44.24
2018-07-23T15:27:36.930Z,42.50
2018-07-23T15:30:07.634Z,42.24
2018-07-23T15:32:36.587Z,42.03
2018-07-23T15:35:07.495Z,42.68
2018-07-23T15:37:36.579Z,43.46
2018-07-23T15:40:06.861Z,43.28
2018-07-23T15:42:36.137Z,43.09
2018-07-23T15:45:07.390Z,43.64
2018-07-23T15:47:36.562Z,44.13
2018-07-23T15:50:07.093Z,43.17
2018-07-23T15:52:36.286Z,43.45
2018-07-23T15:55:08.722Z,42.97
2018-07-23T15:57:37.999Z,43.11
2018-07-23T16:00:07.458Z,42.71
2018-07-23T16:02:36.549Z,43.54
2018-07-23T16:05:07.522Z,44.04
2018-07-23T16:07:36.454Z,44.46
2018-07-23T16:10:07.526Z,44.25
2018-07-23T16:12:37.437Z,43.41
2018-07-23T16:15:08.930Z,44.12
2018-07-23T16:17:38.634Z,44.12
2018-07-23T16:20:08.130Z,44.11
2018-07-23T16:22:38.233Z,44.10
2018-07-23T16:25:08.272Z,43.81
2018-07-23T16:27:37.426Z,43.46
2018-07-23T16:30:08.711Z,44.33
2018-07-23T16:32:38.678Z,44.64
2018-07-23T16:35:10.502Z,45.44
2018-07-23T16:37:39.458Z,44.96
2018-07-23T16:40:09.283Z,44.48
2018-07-23T16:42:38.880Z,44.32
2018-07-23T16:45:08.146Z,44.25
2018-07-23T16:47:37.123Z,45.28
2018-07-23T16:50:07.690Z,44.23
2018-07-23T16:52:37.202Z,44.27
2018-07-23T16:55:07.310Z,44.04
2018-07-23T16:57:36.258Z,44.64
2018-07-23T17:00:09.167Z,43.89
2018-07-23T17:02:38.114Z,44.34
2018-07-23T17:05:08.017Z,43.58
2018-07-23T17:07:37.113Z,43.76
2018-07-23T17:10:07.119Z,43.50
2018-07-23T17:12:36.236Z,43.95
2018-07-23T17:15:07.365Z,44.48
2018-07-23T17:17:36.649Z,44.25
2018-07-23T17:20:08.357Z,44.15
2018-07-23T17:22:38.306Z,45.67
2018-07-23T17:25:07.938Z,46.20
2018-07-23T17:27:37.214Z,45.38
2018-07-23T17:30:08.551Z,44.98
2018-07-23T17:32:38.032Z,45.93
2018-07-23T17:35:07.394Z,44.97
2018-07-23T17:37:37.300Z,44.47
2018-07-23T17:40:07.021Z,45.49
2018-07-23T17:42:36.607Z,45.01
2018-07-23T17:45:08.867Z,45.58
2018-07-23T17:47:38.054Z,45.65
2018-07-23T17:50:07.323Z,45.83
2018-07-23T17:52:36.792Z,47.26
2018-07-23T17:55:10.659Z,46.52
2018-07-23T17:57:39.858Z,46.72
2018-07-23T18:00:09.468Z,46.61
2018-07-23T18:02:39.181Z,47.03
2018-07-23T18:05:08.558Z,47.23
2018-07-23T18:07:37.744Z,47.79
2018-07-23T18:10:06.949Z,47.97
2018-07-23T18:12:36.082Z,46.14
2018-07-23T18:15:08.284Z,46.39
2018-07-23T18:17:37.733Z,46.61
2018-07-23T18:20:08.854Z,47.73
2018-07-23T18:22:37.790Z,47.46
2018-07-23T18:25:07.310Z,48.09
2018-07-23T18:27:36.381Z,48.15
2018-07-23T18:30:08.752Z,49.11
2018-07-23T18:32:38.159Z,50.19
2018-07-23T18:35:08.187Z,50.11
2018-07-23T18:37:37.387Z,49.84
2018-07-23T18:40:08.023Z,51.45
2018-07-23T18:42:37.770Z,53.99
2018-07-23T18:45:07.556Z,55.48
2018-07-23T18:47:37.018Z,54.88
2018-07-23T18:50:07.852Z,56.71
2018-07-23T18:52:37.200Z,56.23
2018-07-23T18:55:07.948Z,56.33
2018-07-23T18:57:37.213Z,56.49
2018-07-23T19:00:07.646Z,56.59
2018-07-23T19:02:37.575Z,56.83
2018-07-23T19:05:07.759Z,57.71
2018-07-23T19:07:36.742Z,57.51
2018-07-23T19:10:09.742Z,58.43
2018-07-23T19:12:38.969Z,58.50
2018-07-23T19:15:08.387Z,58.90
2018-07-23T19:17:37.394Z,60.54
2018-07-23T19:20:07.487Z,60.52
2018-07-23T19:22:36.783Z,60.22
2018-07-23T19:25:07.427Z,60.66
2018-07-23T19:27:36.809Z,62.55
2018-07-23T19:30:07.655Z,64.26
2018-07-23T19:32:36.957Z,64.13
2018-07-23T19:35:09.892Z,64.64
2018-07-23T19:37:39.180Z,64.51
2018-07-23T19:40:08.750Z,65.50
2018-07-23T19:42:37.828Z,65.90
2018-07-23T19:45:07.742Z,66.58
2018-07-23T19:47:36.873Z,67.70
2018-07-23T19:50:07.277Z,67.55
2018-07-23T19:52:37.209Z,67.45
2018-07-23T19:55:07.908Z,67.85
2018-07-23T19:57:38.948Z,68.21
2018-07-23T20:00:08.589Z,68.02
2018-07-23T20:02:37.660Z,68.88
2018-07-23T20:05:07.164Z,71.54
2018-07-23T20:07:36.752Z,71.93
2018-07-23T20:10:08.935Z,72.25
2018-07-23T20:12:38.050Z,72.51
2018-07-23T20:15:07.226Z,72.52
2018-07-23T20:17:36.360Z,71.78
2018-07-23T20:20:08.344Z,71.19
2018-07-23T20:22:37.319Z,73.40
2018-07-23T20:25:07.472Z,72.35
2018-07-23T20:27:36.433Z,72.98
2018-07-23T20:30:08.983Z,72.51
2018-07-23T20:32:38.192Z,71.70
2018-07-23T20:35:07.508Z,71.95
2018-07-23T20:37:36.749Z,72.17
2018-07-23T20:40:09.232Z,72.85
2018-07-23T20:42:38.591Z,73.25
2018-07-23T20:45:08.157Z,72.52
2018-07-23T20:47:37.447Z,72.66
2018-07-23T20:50:08.336Z,72.09
2018-07-23T20:52:38.276Z,73.14
2018-07-23T20:55:07.252Z,72.48
2018-07-23T20:57:36.446Z,73.23
2018-07-23T21:00:09.222Z,72.65
2018-07-23T21:02:39.296Z,73.53
2018-07-23T21:05:08.256Z,73.36
2018-07-23T21:07:37.518Z,73.83
2018-07-23T21:10:07.917Z,75.65
2018-07-23T21:12:37.301Z,74.68
2018-07-23T21:15:08.993Z,75.71
2018-07-23T21:17:38.682Z,75.43
2018-07-23T21:20:09.340Z,76.13
2018-07-23T21:22:39.101Z,76.57
2018-07-23T21:25:08.919Z,75.12
2018-07-23T21:27:39.390Z,75.86
2018-07-23T21:30:08.462Z,76.95
2018-07-23T21:32:37.558Z,76.54
2018-07-23T21:35:07.901Z,76.95
2018-07-23T21:37:37.719Z,76.69
2018-07-23T21:40:08.956Z,76.46
2018-07-23T21:42:38.199Z,76.78
2018-07-23T21:45:08.210Z,76.70
2018-07-23T21:47:38.372Z,76.43
2018-07-23T21:50:08.500Z,76.85
2018-07-23T21:52:37.783Z,77.01
2018-07-23T21:55:08.447Z,77.29
2018-07-23T21:57:37.691Z,77.62
2018-07-23T22:00:12.444Z,78.20
2018-07-23T22:02:41.692Z,78.05
2018-07-23T22:05:12.481Z,78.69
2018-07-23T22:07:42.457Z,78.84
2018-07-23T22:10:11.940Z,78.90
2018-07-23T22:12:41.987Z,78.46
2018-07-23T22:15:12.296Z,78.82
2018-07-23T22:17:41.595Z,78.74
2018-07-23T22:20:11.092Z,79.15
2018-07-23T22:22:40.315Z,79.91
2018-07-23T22:25:09.704Z,81.15
2018-07-23T22:27:38.947Z,80.85
2018-07-23T22:30:08.441Z,80.04
2018-07-23T22:32:37.526Z,80.26
2018-07-23T22:35:08.449Z,80.79
2018-07-23T22:37:37.452Z,79.99
2018-07-23T22:40:07.631Z,80.22
2018-07-23T22:42:36.886Z,81.03
2018-07-23T22:45:07.434Z,80.96
2018-07-23T22:47:36.773Z,80.72
2018-07-23T22:50:09.264Z,81.14
2018-07-23T22:52:38.253Z,80.84
2018-07-23T22:55:07.610Z,80.94
2018-07-23T22:57:37.478Z,81.59
2018-07-23T23:00:09.005Z,82.02
2018-07-23T23:02:38.145Z,82.86
2018-07-23T23:05:07.314Z,83.05
2018-07-23T23:07:36.530Z,83.91
2018-07-23T23:10:07.465Z,84.40
2018-07-23T23:12:36.831Z,83.44
2018-07-23T23:15:07.638Z,84.85
2018-07-23T23:17:37.755Z,84.79
2018-07-23T23:20:08.390Z,85.67
2018-07-23T23:22:37.904Z,84.45
2018-07-23T23:25:07.808Z,83.73
2018-07-23T23:27:37.939Z,84.03
2018-07-23T23:30:08.044Z,84.44
2018-07-23T23:32:37.055Z,83.66
2018-07-23T23:35:09.441Z,83.57
2018-07-23T23:37:38.487Z,84.30
2018-07-23T23:40:07.500Z,84.96
2018-07-23T23:42:36.779Z,84.56
2018-07-23T23:45:07.538Z,84.37
2018-07-23T23:47:36.886Z,84.97
2018-07-23T23:50:08.550Z,84.42
2018-07-23T23:52:49.288Z,84.99
2018-07-23T23:55:18.780Z,84.93
2018-07-23T23:57:47.795Z,84.43
